Time;durP1;ratioP1;P1;durP2;ratioP2;P2;SDS_P1;SDS_P2;PMS_P1;PMS_P2;Temp;Humidity;BMP_temperature;BMP_pressure;BME280_temperature;BME280_humidity;BME280_pressure;Samples;Min_cycle;Max_cycle;Signal;HPM_P1;HPM_P2
2024/02/04 00:00:18;;;;;;;;;;;;;;;21.46;23.38;97997.16;5018836;28;1374;-74
2024/02/04 00:02:43;;;;;;;;;;;;;;;21.54;23.16;98009.88;5035672;28;852;-74
2024/02/04 00:05:09;;;;;;;;;;;;;;;21.31;23.62;98025.03;5018766;28;779;-74
2024/02/04 00:07:34;;;;;;;;;;;;;;;21.69;23.13;98011.09;5035635;28;912;-74
2024/02/04 00:10:00;;;;;;;;;;;;;;;21.47;23.13;98005.22;5019235;28;790;-74
2024/02/04 00:12:26;;;;;;;;;;;;;;;21.20;23.54;98008.31;5018806;28;953;-75
2024/02/04 00:14:52;;;;;;;;;;;;;;;21.33;23.54;97989.38;5019184;28;1975;-75
2024/02/04 00:17:17;;;;;;;;;;;;;;;21.41;23.73;98001.34;5017871;28;1125;-74
2024/02/04 00:19:43;;;;;;;;;;;;;;;21.38;23.66;98002.22;5023271;28;1236;-75
2024/02/04 00:22:09;;;;;;;;;;;;;;;21.54;23.37;98009.88;5005693;28;937;-74
2024/02/04 00:24:34;;;;;;;;;;;;;;;21.32;23.64;98010.44;5057301;28;787;-74
2024/02/04 00:27:00;;;;;;;;;;;;;;;21.22;23.93;98011.47;5057070;28;1218;-75
2024/02/04 00:29:25;;;;;;;;;;;;;;;21.56;23.23;98013.09;5039636;28;1271;-74
2024/02/04 00:31:51;;;;;;;;;;;;;;;21.64;23.07;98014.47;5022961;28;1101;-75
2024/02/04 00:34:16;;;;;;;;;;;;;;;21.83;22.83;98021.25;5023165;28;1240;-74
2024/02/04 00:36:42;;;;;;;;;;;;;;;21.44;23.39;98010.97;5039605;28;1902;-74
2024/02/04 00:39:08;;;;;;;;;;;;;;;21.16;23.89;98013.25;4997758;28;1039;-74
2024/02/04 00:41:34;;;;;;;;;;;;;;;21.44;23.40;98010.97;4982447;28;1136;-74
2024/02/04 00:44:00;;;;;;;;;;;;;;;21.37;23.49;98011.16;4998667;28;870;-75
2024/02/04 00:46:26;;;;;;;;;;;;;;;21.50;23.30;98003.50;4995275;28;1001;-75
2024/02/04 00:48:52;;;;;;;;;;;;;;;21.45;23.73;97989.91;4963168;28;1186;-75
2024/02/04 00:51:17;;;;;;;;;;;;;;;21.38;23.77;97995.75;4979173;28;905;-74
2024/02/04 00:53:43;;;;;;;;;;;;;;;21.48;23.35;97995.47;4994982;28;796;-75
2024/02/04 00:56:09;;;;;;;;;;;;;;;21.67;23.19;98002.25;4995549;28;1898;-74
2024/02/04 00:58:35;;;;;;;;;;;;;;;21.41;23.49;98000.53;4995017;28;1206;-74
2024/02/04 01:01:00;;;;;;;;;;;;;;;21.32;23.50;97999.13;4979168;28;933;-75
2024/02/04 01:03:26;;;;;;;;;;;;;;;21.65;23.50;98010.38;4995435;28;775;-75
2024/02/04 01:05:51;;;;;;;;;;;;;;;21.39;23.54;97997.34;4995040;28;1424;-75
2024/02/04 01:08:17;;;;;;;;;;;;;;;21.19;23.74;98012.38;4994949;28;775;-74
2024/02/04 01:10:43;;;;;;;;;;;;;;;21.28;23.79;98012.53;4960964;28;979;-74
2024/02/04 01:13:08;;;;;;;;;;;;;;;21.59;23.29;98007.31;4998033;28;983;-74
2024/02/04 01:15:34;;;;;;;;;;;;;;;21.55;23.40;98005.81;4998152;28;1961;-75
2024/02/04 01:17:59;;;;;;;;;;;;;;;21.29;23.91;97999.97;5013828;28;1250;-75
2024/02/04 01:20:25;;;;;;;;;;;;;;;21.45;23.40;98002.03;5035027;28;790;-75
2024/02/04 01:22:50;;;;;;;;;;;;;;;21.74;23.30;98002.06;5035277;28;913;-75
2024/02/04 01:25:16;;;;;;;;;;;;;;;21.44;23.72;98003.25;5018658;28;1186;-75
2024/02/04 01:27:42;;;;;;;;;;;;;;;21.23;23.92;98001.75;5018722;28;1094;-74
2024/02/04 01:30:07;;;;;;;;;;;;;;;21.02;24.07;97996.63;5035407;28;815;-75
2024/02/04 01:32:34;;;;;;;;;;;;;;;21.19;23.86;97998.22;5018842;28;1341;-74
2024/02/04 01:35:00;;;;;;;;;;;;;;;21.35;23.58;97990.97;5018487;28;1906;-74
2024/02/04 01:37:25;;;;;;;;;;;;;;;21.29;23.69;97993.50;5035759;28;1051;-74
2024/02/04 01:39:51;;;;;;;;;;;;;;;21.79;23.15;97993.03;5035207;28;929;-74
2024/02/04 01:42:17;;;;;;;;;;;;;;;21.61;23.40;97992.72;5035013;28;1123;-75
2024/02/04 01:44:43;;;;;;;;;;;;;;;21.33;23.66;97983.72;5034908;28;1083;-75
2024/02/04 01:47:09;;;;;;;;;;;;;;;21.42;23.50;97985.94;5034820;28;1138;-74
2024/02/04 01:49:35;;;;;;;;;;;;;;;21.76;23.21;97968.44;5018516;28;1558;-74
2024/02/04 01:52:01;;;;;;;;;;;;;;;21.37;23.61;97963.81;5018483;28;1107;-74
2024/02/04 01:54:26;;;;;;;;;;;;;;;21.13;23.87;97966.00;5034319;28;878;-74
2024/02/04 01:56:52;;;;;;;;;;;;;;;21.14;23.87;97961.97;5036194;28;1917;-74
2024/02/04 01:59:19;;;;;;;;;;;;;;;21.21;23.74;97964.59;5021724;28;1361;-74
2024/02/04 02:01:44;;;;;;;;;;;;;;;21.52;23.32;97967.06;5021864;28;1252;-75
2024/02/04 02:04:10;;;;;;;;;;;;;;;21.85;23.20;97960.06;5005073;28;1118;-74
2024/02/04 02:06:41;;;;;;;;;;;;;;;21.64;23.10;97960.66;5005657;28;1121;-74
2024/02/04 02:09:10;;;;;;;;;;;;;;;21.22;23.78;97954.88;5021910;28;1125;-74
2024/02/04 02:11:45;;;;;;;;;;;;;;;21.23;23.99;97959.28;5038487;28;799;-74
2024/02/04 02:14:11;;;;;;;;;;;;;;;21.39;23.65;97949.22;5004929;28;1253;-74
2024/02/04 02:16:37;;;;;;;;;;;;;;;21.46;23.46;97949.84;5021333;28;1918;-74
2024/02/04 02:19:22;;;;;;;;;;;;;;;21.76;23.01;97937.28;5037804;28;1142;-74
2024/02/04 02:21:48;;;;;;;;;;;;;;;21.71;23.03;97939.84;4942626;28;1294;-74
2024/02/04 02:24:22;;;;;;;;;;;;;;;21.74;22.98;97934.09;4958567;28;1224;-74
2024/02/04 02:26:49;;;;;;;;;;;;;;;21.53;23.30;97937.53;4958633;28;1265;-75
2024/02/04 02:29:14;;;;;;;;;;;;;;;21.21;23.77;97927.81;4958316;28;751;-74
2024/02/04 02:31:40;;;;;;;;;;;;;;;21.25;23.69;97931.38;4942912;28;1102;-75
2024/02/04 02:34:06;;;;;;;;;;;;;;;21.37;23.53;97926.25;4974298;28;1191;-74
2024/02/04 02:36:37;;;;;;;;;;;;;;;21.38;23.75;97933.47;4958358;28;2233;-74
2024/02/04 02:39:02;;;;;;;;;;;;;;;21.68;23.37;97935.88;4974380;28;932;-74
2024/02/04 02:41:28;;;;;;;;;;;;;;;21.43;23.84;97930.13;4958467;28;831;-74
2024/02/04 02:43:54;;;;;;;;;;;;;;;21.61;23.36;97936.09;4974709;28;982;-74
2024/02/04 02:46:19;;;;;;;;;;;;;;;21.50;23.58;97924.25;4971199;28;1113;-74
2024/02/04 02:48:45;;;;;;;;;;;;;;;21.29;23.71;97934.88;4954935;29;1132;-74
2024/02/04 02:51:10;;;;;;;;;;;;;;;21.21;23.99;97930.66;4954952;29;1370;-74
2024/02/04 02:53:36;;;;;;;;;;;;;;;21.27;23.95;97940.19;4971366;28;896;-75
2024/02/04 02:56:01;;;;;;;;;;;;;;;21.61;23.45;97936.09;4971144;28;1918;-74
2024/02/04 02:58:27;;;;;;;;;;;;;;;21.72;23.16;97936.59;4980469;28;1248;-74
2024/02/04 03:00:53;;;;;;;;;;;;;;;21.51;23.48;97943.63;4977578;28;1171;-74
2024/02/04 03:03:19;;;;;;;;;;;;;;;21.16;24.08;97942.50;4976562;28;1076;-74
2024/02/04 03:05:44;;;;;;;;;;;;;;;21.33;23.83;97949.75;4929896;28;1283;-74
2024/02/04 03:08:10;;;;;;;;;;;;;;;21.06;24.13;97946.41;4977671;28;1105;-74
2024/02/04 03:10:35;;;;;;;;;;;;;;;21.56;23.36;97950.78;4922249;29;1641;-74
2024/02/04 03:13:02;;;;;;;;;;;;;;;21.59;23.39;97944.22;4907572;29;1170;-75
2024/02/04 03:15:27;;;;;;;;;;;;;;;21.79;23.09;97950.53;4923160;29;1979;-74
2024/02/04 03:17:53;;;;;;;;;;;;;;;21.62;23.24;97943.34;4948083;29;937;-74
2024/02/04 03:20:18;;;;;;;;;;;;;;;21.23;23.75;97921.72;4977398;28;1596;-74
2024/02/04 03:22:45;;;;;;;;;;;;;;;21.19;24.22;97944.47;4977945;28;1124;-74
2024/02/04 03:25:11;;;;;;;;;;;;;;;21.41;23.62;97943.94;4945330;28;1128;-75
2024/02/04 03:27:37;;;;;;;;;;;;;;;21.64;23.26;97929.53;4961332;28;1124;-75
2024/02/04 03:30:03;;;;;;;;;;;;;;;21.68;23.44;97947.22;4977233;28;1173;-74
2024/02/04 03:32:33;;;;;;;;;;;;;;;21.67;23.32;97939.97;4960893;28;1662;-75
2024/02/04 03:35:02;;;;;;;;;;;;;;;21.79;23.20;97942.03;4945626;28;1918;-74
2024/02/04 03:37:28;;;;;;;;;;;;;;;21.78;23.30;97939.66;4945431;28;1239;-74
2024/02/04 03:39:53;;;;;;;;;;;;;;;21.85;23.00;97939.44;4944940;28;1277;-74
2024/02/04 03:42:20;;;;;;;;;;;;;;;21.27;23.92;97945.84;4960865;28;869;-74
2024/02/04 03:44:46;;;;;;;;;;;;;;;21.08;24.16;97941.09;4977124;28;1466;-75
2024/02/04 03:47:12;;;;;;;;;;;;;;;21.39;23.74;97946.38;4999510;28;1101;-74
2024/02/04 03:49:37;;;;;;;;;;;;;;;21.62;23.59;97949.00;5032005;28;758;-74
2024/02/04 03:52:03;;;;;;;;;;;;;;;21.30;23.75;97949.88;4999242;28;1103;-74
2024/02/04 03:54:28;;;;;;;;;;;;;;;21.47;23.72;97945.75;5016017;28;985;-75
2024/02/04 03:56:54;;;;;;;;;;;;;;;21.44;23.68;97948.69;4983157;28;1911;-74
2024/02/04 03:59:20;;;;;;;;;;;;;;;21.29;23.86;97943.34;5015811;28;751;-74
2024/02/04 04:01:49;;;;;;;;;;;;;;;21.05;24.14;97939.16;5015925;28;988;-74
2024/02/04 04:04:15;;;;;;;;;;;;;;;21.44;23.64;97934.53;4957320;29;881;-74
2024/02/04 04:06:41;;;;;;;;;;;;;;;21.61;23.79;97932.47;4941274;29;806;-75
2024/02/04 04:09:07;;;;;;;;;;;;;;;21.76;23.38;97931.63;4957126;29;960;-75
2024/02/04 04:11:32;;;;;;;;;;;;;;;21.67;23.50;97925.81;4941183;29;903;-75
2024/02/04 04:13:57;;;;;;;;;;;;;;;21.79;23.44;97916.53;4940093;29;774;-75
2024/02/04 04:16:23;;;;;;;;;;;;;;;21.87;23.11;97916.38;4957286;29;1907;-74
2024/02/04 04:18:49;;;;;;;;;;;;;;;21.21;24.07;97913.69;4957396;29;793;-74
2024/02/04 04:21:15;;;;;;;;;;;;;;;21.10;24.21;97913.16;4957286;29;704;-74
2024/02/04 04:23:40;;;;;;;;;;;;;;;21.24;24.05;97918.47;4975017;28;835;-74
2024/02/04 04:26:06;;;;;;;;;;;;;;;21.57;23.74;97918.41;4979287;28;874;-74
2024/02/04 04:28:31;;;;;;;;;;;;;;;21.42;23.93;97914.38;4995531;28;771;-74
2024/02/04 04:30:57;;;;;;;;;;;;;;;21.30;23.82;97911.03;4995847;28;869;-74
2024/02/04 04:33:22;;;;;;;;;;;;;;;21.47;23.90;97902.50;4979237;28;811;-74
2024/02/04 04:35:48;;;;;;;;;;;;;;;21.69;23.49;97902.69;5029059;28;1981;-74
2024/02/04 04:38:13;;;;;;;;;;;;;;;21.58;23.80;97900.16;5039267;28;1065;-74
2024/02/04 04:40:40;;;;;;;;;;;;;;;21.61;23.72;97896.47;5039336;28;763;-75
2024/02/04 04:43:06;;;;;;;;;;;;;;;21.61;23.56;97896.47;5056928;28;791;-75
2024/02/04 04:45:31;;;;;;;;;;;;;;;21.65;23.77;97899.97;5039158;28;795;-74
2024/02/04 04:47:57;;;;;;;;;;;;;;;21.62;23.42;97895.22;5056857;28;822;-74
2024/02/04 04:50:23;;;;;;;;;;;;;;;21.38;23.88;97911.63;5022670;28;1150;-74
2024/02/04 04:52:48;;;;;;;;;;;;;;;21.41;24.02;97916.41;5022602;28;962;-74
2024/02/04 04:55:14;;;;;;;;;;;;;;;21.45;23.87;97904.97;5056695;28;1901;-74
2024/02/04 04:57:39;;;;;;;;;;;;;;;21.44;23.78;97923.19;5038869;28;1057;-75
2024/02/04 05:00:07;;;;;;;;;;;;;;;21.62;23.55;97917.84;5039062;28;976;-75
2024/02/04 05:02:33;;;;;;;;;;;;;;;21.55;23.60;97913.19;4982086;28;1705;-74
2024/02/04 05:04:58;;;;;;;;;;;;;;;21.60;23.50;97906.16;5014627;28;1008;-74
2024/02/04 05:07:24;;;;;;;;;;;;;;;21.21;24.46;97910.84;4998111;28;983;-74
2024/02/04 05:09:50;;;;;;;;;;;;;;;21.19;24.16;97902.03;4998341;28;968;-74
2024/02/04 05:12:15;;;;;;;;;;;;;;;21.60;23.96;97897.69;5014797;28;1060;-74
2024/02/04 05:14:41;;;;;;;;;;;;;;;21.58;23.79;97906.63;4998087;28;987;-74
2024/02/04 05:17:06;;;;;;;;;;;;;;;21.46;23.92;97906.59;4981691;28;1977;-74
2024/02/04 05:19:32;;;;;;;;;;;;;;;21.53;24.04;97912.03;4998132;28;1109;-75
2024/02/04 05:21:57;;;;;;;;;;;;;;;21.72;23.51;97910.31;5014561;28;983;-74
2024/02/04 05:24:23;;;;;;;;;;;;;;;21.71;23.62;97912.34;4998047;28;903;-74
2024/02/04 05:26:48;;;;;;;;;;;;;;;21.54;24.03;97902.31;5013922;28;1313;-75
2024/02/04 05:29:14;;;;;;;;;;;;;;;21.38;24.20;97910.84;4975514;28;973;-75
2024/02/04 05:31:42;;;;;;;;;;;;;;;21.62;24.10;97908.56;4975396;28;1001;-74
2024/02/04 05:34:08;;;;;;;;;;;;;;;21.54;24.04;97908.75;5005400;28;1017;-74
2024/02/04 05:36:34;;;;;;;;;;;;;;;21.52;24.19;97894.25;4965637;28;1910;-74
2024/02/04 05:39:10;;;;;;;;;;;;;;;21.48;23.92;97887.91;4981652;28;981;-75
2024/02/04 05:41:35;;;;;;;;;;;;;;;21.79;23.80;97888.22;4981823;28;1259;-75
2024/02/04 05:44:01;;;;;;;;;;;;;;;21.65;23.80;97888.63;5014246;28;1054;-74
2024/02/04 05:46:27;;;;;;;;;;;;;;;21.88;23.73;97895.28;4997591;28;991;-74
2024/02/04 05:48:53;;;;;;;;;;;;;;;21.74;23.97;97893.66;4982129;28;1023;-75
2024/02/04 05:51:18;;;;;;;;;;;;;;;21.62;23.89;97903.69;5013870;28;1016;-75
2024/02/04 05:53:44;;;;;;;;;;;;;;;21.70;23.90;97893.75;4997606;28;996;-75
2024/02/04 05:56:09;;;;;;;;;;;;;;;21.63;23.91;97905.28;4997390;28;1914;-75
2024/02/04 05:58:35;;;;;;;;;;;;;;;21.58;24.19;97898.13;4997310;28;1328;-75
2024/02/04 06:01:00;;;;;;;;;;;;;;;21.37;24.22;97898.72;5046661;28;1000;-75
2024/02/04 06:03:26;;;;;;;;;;;;;;;21.45;24.45;97910.63;5053478;28;1112;-75
2024/02/04 06:05:51;;;;;;;;;;;;;;;21.21;24.76;97913.69;5020452;28;938;-75
2024/02/04 06:08:17;;;;;;;;;;;;;;;21.28;24.58;97919.13;5036749;28;1002;-75
2024/02/04 06:10:42;;;;;;;;;;;;;;;21.51;24.31;97908.88;5036895;28;983;-75
2024/02/04 06:13:08;;;;;;;;;;;;;;;21.62;24.14;97915.03;5053319;28;867;-75
2024/02/04 06:15:35;;;;;;;;;;;;;;;21.75;23.84;97918.69;5037147;28;1971;-75
2024/02/04 06:18:01;;;;;;;;;;;;;;;21.72;23.89;97928.09;5053656;28;1021;-75
2024/02/04 06:20:26;;;;;;;;;;;;;;;21.86;23.89;97929.69;5053499;28;943;-75
2024/02/04 06:22:52;;;;;;;;;;;;;;;21.54;24.19;97941.94;5053413;28;973;-75
2024/02/04 06:25:17;;;;;;;;;;;;;;;21.53;24.38;97940.34;5036978;28;970;-75
2024/02/04 06:27:43;;;;;;;;;;;;;;;21.10;24.71;97930.16;5037480;28;993;-75
2024/02/04 06:30:09;;;;;;;;;;;;;;;20.94;25.01;97939.44;5021504;28;1016;-75
2024/02/04 06:32:34;;;;;;;;;;;;;;;21.37;24.40;97931.91;5055669;28;958;-75
2024/02/04 06:35:00;;;;;;;;;;;;;;;21.59;24.29;97938.56;5013333;28;1899;-75
2024/02/04 06:37:25;;;;;;;;;;;;;;;21.83;23.83;97941.94;5014530;28;1004;-75
2024/02/04 06:39:52;;;;;;;;;;;;;;;21.60;24.00;97951.47;4978206;28;991;-75
2024/02/04 06:42:17;;;;;;;;;;;;;;;21.45;24.44;97950.25;4978094;28;1091;-75
2024/02/04 06:44:45;;;;;;;;;;;;;;;21.83;23.86;97948.41;4958809;29;986;-75
2024/02/04 06:47:14;;;;;;;;;;;;;;;21.51;24.39;97948.50;4958683;29;964;-75
2024/02/04 06:49:43;;;;;;;;;;;;;;;21.29;24.67;97949.03;4927298;29;1004;-75
2024/02/04 06:52:08;;;;;;;;;;;;;;;21.28;24.73;97947.44;4926632;29;971;-75
2024/02/04 06:54:34;;;;;;;;;;;;;;;21.50;24.59;97952.56;4958773;29;978;-75
2024/02/04 06:56:59;;;;;;;;;;;;;;;21.68;23.98;97954.91;4942555;29;1967;-75
2024/02/04 06:59:25;;;;;;;;;;;;;;;21.70;23.80;97953.22;4942491;29;920;-75
2024/02/04 07:01:52;;;;;;;;;;;;;;;21.91;23.71;97953.84;4942596;29;1112;-75
2024/02/04 07:04:18;;;;;;;;;;;;;;;21.81;24.07;97948.06;4958496;29;1119;-75
2024/02/04 07:06:44;;;;;;;;;;;;;;;21.57;24.13;97952.38;4974424;28;1009;-75
2024/02/04 07:09:09;;;;;;;;;;;;;;;21.26;24.57;97947.09;4977793;28;933;-75
2024/02/04 07:11:35;;;;;;;;;;;;;;;21.10;24.92;97951.97;4993537;28;961;-75
2024/02/04 07:14:00;;;;;;;;;;;;;;;21.26;24.79;97938.59;4964794;28;1066;-75
2024/02/04 07:16:26;;;;;;;;;;;;;;;21.44;24.53;97940.97;5029412;28;1899;-75
2024/02/04 07:18:51;;;;;;;;;;;;;;;21.72;24.08;97945.09;5040584;28;947;-75
2024/02/04 07:21:17;;;;;;;;;;;;;;;21.66;24.21;97941.22;5058793;28;1065;-75
2024/02/04 07:23:42;;;;;;;;;;;;;;;21.37;24.61;97943.22;5040717;28;1117;-75
2024/02/04 07:26:08;;;;;;;;;;;;;;;21.73;23.96;97938.16;5057551;28;1113;-75
2024/02/04 07:28:34;;;;;;;;;;;;;;;21.43;24.27;97938.59;5058447;28;947;-74
2024/02/04 07:30:59;;;;;;;;;;;;;;;21.16;24.87;97925.53;5040375;28;942;-75
2024/02/04 07:33:25;;;;;;;;;;;;;;;21.23;24.88;97922.50;5040706;28;1005;-75
2024/02/04 07:35:50;;;;;;;;;;;;;;;21.47;24.63;97913.84;5024169;28;1969;-75
2024/02/04 07:38:16;;;;;;;;;;;;;;;21.65;24.45;97924.66;5057376;28;1103;-75
2024/02/04 07:40:42;;;;;;;;;;;;;;;21.80;23.94;97920.16;5040228;28;910;-75
2024/02/04 07:43:08;;;;;;;;;;;;;;;21.59;24.35;97938.56;5058592;28;963;-75
2024/02/04 07:45:34;;;;;;;;;;;;;;;21.68;24.10;97938.72;5023914;28;1162;-75
2024/02/04 07:47:59;;;;;;;;;;;;;;;21.69;24.24;97942.34;5023744;28;995;-75
2024/02/04 07:50:25;;;;;;;;;;;;;;;21.68;24.28;97946.41;5056982;28;1185;-75
2024/02/04 07:52:51;;;;;;;;;;;;;;;21.05;25.18;97945.63;5039988;28;1034;-75
2024/02/04 07:55:17;;;;;;;;;;;;;;;21.41;24.59;97944.72;5040399;28;1906;-75
2024/02/04 07:57:42;;;;;;;;;;;;;;;21.56;24.56;97953.63;5007553;28;998;-74
2024/02/04 08:00:10;;;;;;;;;;;;;;;21.59;24.40;97944.22;5040286;28;902;-75
2024/02/04 08:02:39;;;;;;;;;;;;;;;21.30;24.83;97949.88;5024295;28;1135;-75
2024/02/04 08:05:05;;;;;;;;;;;;;;;21.44;24.73;97955.13;5040239;28;1053;-75
2024/02/04 08:07:30;;;;;;;;;;;;;;;21.91;23.91;97962.34;5040166;28;922;-75
2024/02/04 08:09:56;;;;;;;;;;;;;;;21.54;24.70;97967.41;5015399;28;985;-75
2024/02/04 08:12:21;;;;;;;;;;;;;;;21.17;25.02;97969.56;4983323;28;1129;-75
2024/02/04 08:14:47;;;;;;;;;;;;;;;21.24;25.00;97968.56;5015368;28;984;-75
2024/02/04 08:17:12;;;;;;;;;;;;;;;21.35;25.07;97974.00;4999463;28;1969;-75
2024/02/04 08:19:38;;;;;;;;;;;;;;;21.47;24.67;97959.13;5015452;28;1500;-75
2024/02/04 08:22:04;;;;;;;;;;;;;;;21.43;24.63;97958.41;5015461;28;1019;-75
2024/02/04 08:24:31;;;;;;;;;;;;;;;21.57;24.48;97961.66;5015586;28;1000;-75
2024/02/04 08:26:58;;;;;;;;;;;;;;;21.62;24.34;97966.00;4960174;28;1196;-74
2024/02/04 08:29:23;;;;;;;;;;;;;;;21.44;24.73;97946.63;4960248;28;1502;-74
2024/02/04 08:31:49;;;;;;;;;;;;;;;21.64;24.58;97952.19;4976538;28;1080;-75
2024/02/04 08:34:14;;;;;;;;;;;;;;;21.49;24.60;97934.78;4976219;28;1067;-74
2024/02/04 08:36:40;;;;;;;;;;;;;;;21.60;24.64;97934.47;4960028;28;1898;-74
2024/02/04 08:39:06;;;;;;;;;;;;;;;21.39;24.81;97938.69;4959906;28;1046;-75
2024/02/04 08:41:31;;;;;;;;;;;;;;;21.32;25.09;97928.38;4974574;28;1064;-74
2024/02/04 08:43:57;;;;;;;;;;;;;;;21.30;25.02;97945.00;4995518;28;985;-74
2024/02/04 08:46:22;;;;;;;;;;;;;;;21.40;25.02;97942.31;4995573;28;977;-74
2024/02/04 08:48:48;;;;;;;;;;;;;;;21.65;24.53;97942.44;4963119;28;1128;-74
2024/02/04 08:51:15;;;;;;;;;;;;;;;21.39;24.93;97935.84;4995679;28;1019;-74
2024/02/04 08:53:41;;;;;;;;;;;;;;;20.96;25.34;97925.63;4995282;28;967;-74
2024/02/04 08:56:08;;;;;;;;;;;;;;;21.24;25.22;97923.28;4995233;28;1898;-74
2024/02/04 08:58:34;;;;;;;;;;;;;;;21.39;24.90;97929.41;5017558;28;1093;-74
2024/02/04 09:00:59;;;;;;;;;;;;;;;21.35;25.01;97923.03;5022179;28;1132;-75
2024/02/04 09:03:25;;;;;;;;;;;;;;;21.60;24.57;97928.81;5039060;28;973;-75
2024/02/04 09:05:50;;;;;;;;;;;;;;;21.59;24.66;97930.06;5022546;28;1238;-74
2024/02/04 09:08:16;;;;;;;;;;;;;;;21.25;25.19;97937.03;5038786;28;1031;-74
2024/02/04 09:10:41;;;;;;;;;;;;;;;20.99;25.68;97929.63;5056914;28;911;-74
2024/02/04 09:13:07;;;;;;;;;;;;;;;21.51;24.87;97920.19;5055418;28;1124;-74
2024/02/04 09:15:32;;;;;;;;;;;;;;;21.39;24.80;97932.25;5038829;28;1906;-74
2024/02/04 09:17:58;;;;;;;;;;;;;;;21.61;24.77;97924.78;5021917;28;1004;-74
2024/02/04 09:20:23;;;;;;;;;;;;;;;21.55;24.67;97915.22;5056008;28;994;-74
2024/02/04 09:22:49;;;;;;;;;;;;;;;21.73;24.42;97904.19;5056579;28;981;-74
2024/02/04 09:25:14;;;;;;;;;;;;;;;21.63;24.39;97908.13;5056443;28;1126;-75
2024/02/04 09:27:40;;;;;;;;;;;;;;;21.57;24.51;97898.59;5056455;28;1028;-73
2024/02/04 09:30:06;;;;;;;;;;;;;;;21.44;24.80;97903.38;5056304;28;949;-74
2024/02/04 09:32:32;;;;;;;;;;;;;;;21.40;25.06;97891.38;5038456;28;1161;-74
2024/02/04 09:34:58;;;;;;;;;;;;;;;21.67;24.47;97891.03;5014294;28;1256;-74
2024/02/04 09:37:23;;;;;;;;;;;;;;;21.37;24.83;97886.63;5013922;28;1906;-74
2024/02/04 09:39:49;;;;;;;;;;;;;;;21.60;24.60;97886.34;5014397;28;962;-74
2024/02/04 09:42:24;;;;;;;;;;;;;;;21.35;25.08;97889.06;4997963;28;1506;-74
2024/02/04 09:44:49;;;;;;;;;;;;;;;21.39;24.79;97896.22;4997568;28;943;-74
2024/02/04 09:47:15;;;;;;;;;;;;;;;21.18;25.13;97897.56;5014087;28;1080;-74
2024/02/04 09:49:41;;;;;;;;;;;;;;;21.43;25.05;97884.81;4997755;28;1298;-74
2024/02/04 09:52:09;;;;;;;;;;;;;;;21.40;24.80;97882.88;5013755;28;987;-74
2024/02/04 09:54:40;;;;;;;;;;;;;;;21.65;24.74;97890.66;5014198;28;974;-74
2024/02/04 09:57:05;;;;;;;;;;;;;;;21.47;24.88;97879.88;4997374;28;1994;-74
2024/02/04 09:59:31;;;;;;;;;;;;;;;21.45;24.79;97876.66;5014301;28;1001;-74
2024/02/04 10:01:57;;;;;;;;;;;;;;;21.42;24.89;97877.56;5013877;28;1125;-74
2024/02/04 10:04:22;;;;;;;;;;;;;;;21.64;24.51;97877.75;5013788;28;1037;-74
2024/02/04 10:06:48;;;;;;;;;;;;;;;21.63;24.81;97870.50;5031954;28;1103;-74
2024/02/04 10:09:13;;;;;;;;;;;;;;;21.56;24.88;97874.34;5034773;28;946;-75
2024/02/04 10:11:39;;;;;;;;;;;;;;;21.56;24.69;97866.66;5034887;28;1055;-75
2024/02/04 10:14:06;;;;;;;;;;;;;;;21.83;24.39;97869.09;5040026;28;992;-75
2024/02/04 10:16:32;;;;;;;;;;;;;;;21.35;24.96;97867.25;5039917;28;1996;-75
2024/02/04 10:18:57;;;;;;;;;;;;;;;21.14;25.39;97868.59;5038981;28;949;-75
2024/02/04 10:21:24;;;;;;;;;;;;;;;21.40;25.17;97875.19;5039866;28;928;-76
2024/02/04 10:23:49;;;;;;;;;;;;;;;21.50;24.97;97867.63;5017634;28;1204;-75
2024/02/04 10:26:16;;;;;;;;;;;;;;;21.64;24.63;97867.22;5001421;28;1136;-75
2024/02/04 10:28:41;;;;;;;;;;;;;;;21.83;24.45;97873.97;5017352;28;1168;-75
2024/02/04 10:31:10;;;;;;;;;;;;;;;21.68;24.84;97875.63;5012678;28;1654;-75
2024/02/04 10:33:36;;;;;;;;;;;;;;;21.41;25.01;97870.34;4998342;28;983;-75
2024/02/04 10:36:01;;;;;;;;;;;;;;;21.29;25.38;97886.75;5000863;28;1977;-75
2024/02/04 10:38:27;;;;;;;;;;;;;;;21.19;25.33;97882.22;5008115;28;1503;-75
2024/02/04 10:40:53;;;;;;;;;;;;;;;21.46;25.02;97872.63;4986873;28;1402;-75
2024/02/04 10:43:18;;;;;;;;;;;;;;;21.72;24.92;97862.97;4998002;28;1061;-75
2024/02/04 10:45:44;;;;;;;;;;;;;;;21.73;24.48;97858.88;4981445;28;975;-75
2024/02/04 10:48:09;;;;;;;;;;;;;;;21.50;25.10;97868.44;4997537;28;911;-75
2024/02/04 10:50:35;;;;;;;;;;;;;;;21.59;24.84;97865.75;4997598;28;1034;-75
2024/02/04 10:53:03;;;;;;;;;;;;;;;21.62;24.72;97858.41;4981324;28;1147;-75
2024/02/04 10:55:30;;;;;;;;;;;;;;;21.58;24.81;97857.69;5014816;28;1997;-75
2024/02/04 10:57:56;;;;;;;;;;;;;;;21.42;25.02;97854.94;5018173;28;1144;-75
2024/02/04 11:00:22;;;;;;;;;;;;;;;21.52;25.08;97843.31;5030158;28;1494;-75
2024/02/04 11:02:48;;;;;;;;;;;;;;;21.66;24.75;97842.09;5037568;28;1634;-75
2024/02/04 11:05:14;;;;;;;;;;;;;;;21.75;24.83;97839.38;5016858;28;1579;-75
2024/02/04 11:07:40;;;;;;;;;;;;;;;21.68;24.98;97816.16;4997637;28;1743;-75
2024/02/04 11:10:06;;;;;;;;;;;;;;;21.56;25.04;97820.56;4998467;28;1594;-75
2024/02/04 11:12:31;;;;;;;;;;;;;;;21.37;25.20;97818.69;5017013;28;1569;-75
2024/02/04 11:15:06;;;;;;;;;;;;;;;21.32;25.45;97822.84;5000619;28;1019;-76
2024/02/04 11:17:42;;;;;;;;;;;;;;;21.21;25.53;97825.97;5000812;28;1972;-76
2024/02/04 11:20:15;;;;;;;;;;;;;;;21.44;25.19;97821.31;5000417;28;1302;-76
2024/02/04 11:22:52;;;;;;;;;;;;;;;21.72;24.93;97823.31;4999874;28;958;-76
2024/02/04 11:25:30;;;;;;;;;;;;;;;21.73;24.65;97824.91;5000415;28;1072;-75
2024/02/04 11:27:56;;;;;;;;;;;;;;;21.37;25.29;97821.53;5000094;28;1048;-75
2024/02/04 11:30:22;;;;;;;;;;;;;;;21.55;24.91;97818.94;5016759;28;1006;-76
2024/02/04 11:32:48;;;;;;;;;;;;;;;21.42;25.23;97809.66;5000177;28;1203;-76
2024/02/04 11:35:13;;;;;;;;;;;;;;;21.61;25.14;97811.50;5002109;28;1989;-76
2024/02/04 11:37:42;;;;;;;;;;;;;;;21.58;24.98;97806.75;5037326;28;1161;-76
2024/02/04 11:40:07;;;;;;;;;;;;;;;21.55;25.09;97807.63;5037361;28;940;-76
2024/02/04 11:42:33;;;;;;;;;;;;;;;21.45;25.47;97808.72;5020913;28;926;-75
2024/02/04 11:45:11;;;;;;;;;;;;;;;21.56;25.23;97820.56;5038028;28;1137;-76
2024/02/04 11:47:37;;;;;;;;;;;;;;;21.33;25.51;97819.56;5037092;28;1032;-75
2024/02/04 11:50:03;;;;;;;;;;;;;;;21.62;25.03;97818.75;5038057;28;900;-75
2024/02/04 11:52:28;;;;;;;;;;;;;;;21.73;24.95;97819.22;5020726;28;1102;-75
2024/02/04 11:54:54;;;;;;;;;;;;;;;21.70;24.86;97831.44;5037326;28;1219;-76
2024/02/04 11:57:20;;;;;;;;;;;;;;;21.22;25.84;97836.03;5037158;28;1914;-76
2024/02/04 11:59:45;;;;;;;;;;;;;;;21.08;26.00;97836.41;5037198;28;949;-76
2024/02/04 12:02:11;;;;;;;;;;;;;;;21.09;26.11;97832.38;5020458;28;1218;-76
2024/02/04 12:04:39;;;;;;;;;;;;;;;21.47;25.28;97840.22;5037980;28;1069;-76
2024/02/04 12:07:05;;;;;;;;;;;;;;;21.58;25.38;97830.19;4999502;28;1021;-76
2024/02/04 12:09:31;;;;;;;;;;;;;;;21.63;25.07;97831.66;4999489;28;1005;-76
2024/02/04 12:11:57;;;;;;;;;;;;;;;21.60;25.33;97835.38;4983466;28;952;-76
2024/02/04 12:14:22;;;;;;;;;;;;;;;21.69;25.01;97829.88;5015658;28;1015;-76
2024/02/04 12:16:48;;;;;;;;;;;;;;;21.49;25.54;97832.06;4998835;28;1975;-76
2024/02/04 12:19:13;;;;;;;;;;;;;;;21.24;25.60;97824.25;5015773;28;1069;-76
2024/02/04 12:21:39;;;;;;;;;;;;;;;21.32;25.85;97823.66;5015470;28;1082;-76
2024/02/04 12:24:05;;;;;;;;;;;;;;;21.39;25.41;97822.66;5015754;28;1040;-76
2024/02/04 12:26:30;;;;;;;;;;;;;;;21.47;25.37;97811.94;4999364;28;957;-76
2024/02/04 12:28:56;;;;;;;;;;;;;;;21.51;25.34;97815.47;4999224;28;907;-76
2024/02/04 12:31:25;;;;;;;;;;;;;;;21.38;25.76;97823.09;4983084;28;963;-76
2024/02/04 12:34:00;;;;;;;;;;;;;;;21.45;25.68;97809.56;4999155;28;1035;-76
2024/02/04 12:36:25;;;;;;;;;;;;;;;21.31;25.87;97815.63;4999437;28;1914;-75
2024/02/04 12:38:54;;;;;;;;;;;;;;;21.43;25.54;97803.53;5031969;28;1019;-75
2024/02/04 12:41:20;;;;;;;;;;;;;;;21.29;25.77;97801.84;5038592;28;1001;-76
2024/02/04 12:43:49;;;;;;;;;;;;;;;21.12;25.98;97799.53;5038787;28;1045;-76
2024/02/04 12:46:15;;;;;;;;;;;;;;;21.42;25.54;97795.50;5038564;28;964;-76
2024/02/04 12:48:41;;;;;;;;;;;;;;;21.37;25.41;97796.03;5021666;28;1089;-75
2024/02/04 12:51:06;;;;;;;;;;;;;;;21.42;25.61;97801.16;5038195;28;1013;-76
2024/02/04 12:53:32;;;;;;;;;;;;;;;21.41;25.57;97802.41;5018684;28;986;-76